createdAt,value
2022-12-08T00:01:02.845Z,3.8
2022-12-08T00:02:15.846Z,3.8
2022-12-08T00:04:41.838Z,3.8
2022-12-08T00:05:54.800Z,3.8
2022-12-08T00:07:07.808Z,3.8
2022-12-08T00:08:20.594Z,3.8
2022-12-08T00:09:38.924Z,3.8
2022-12-08T00:10:49.561Z,3.8
2022-12-08T00:11:59.781Z,3.8
2022-12-08T00:13:13.215Z,3.8
2022-12-08T00:14:25.607Z,3.6
2022-12-08T00:16:52.125Z,3.6
2022-12-08T00:18:04.859Z,3.6
2022-12-08T00:19:18.394Z,3.6
2022-12-08T00:21:43.852Z,3.6
2022-12-08T00:24:09.664Z,3.6
2022-12-08T00:25:22.734Z,3.6
2022-12-08T00:26:35.695Z,3.6
2022-12-08T00:27:48.865Z,3.6
2022-12-08T00:29:01.712Z,3.6
2022-12-08T00:30:14.845Z,3.6
2022-12-08T00:31:28.174Z,3.6
2022-12-08T00:32:41.243Z,3.6
2022-12-08T00:33:54.358Z,3.6
2022-12-08T00:36:19.740Z,3.6
2022-12-08T00:37:32.881Z,3.6
2022-12-08T00:38:45.851Z,3.6
2022-12-08T00:42:24.739Z,3.6
2022-12-08T00:43:37.596Z,3.6
2022-12-08T00:46:04.424Z,3.6
2022-12-08T00:47:19.855Z,3.6
2022-12-08T00:50:55.584Z,3.6
2022-12-08T00:52:08.868Z,3.6
2022-12-08T00:54:35.025Z,3.7
2022-12-08T00:58:13.776Z,3.7
2022-12-08T00:59:26.884Z,3.7
2022-12-08T01:00:40.199Z,3.7
2022-12-08T01:03:05.766Z,3.7
2022-12-08T01:04:18.930Z,3.7
2022-12-08T01:05:31.887Z,3.6
2022-12-08T01:06:44.952Z,3.6
2022-12-08T01:11:36.899Z,3.6
2022-12-08T01:15:15.925Z,3.6
2022-12-08T01:16:29.218Z,3.6
2022-12-08T01:17:41.959Z,3.6
2022-12-08T01:18:55.378Z,3.6
2022-12-08T01:20:08.178Z,3.6
2022-12-08T01:21:20.615Z,3.6
2022-12-08T01:22:33.883Z,3.6
2022-12-08T01:24:59.913Z,3.6
2022-12-08T01:27:25.902Z,3.6
2022-12-08T01:28:38.873Z,3.6
2022-12-08T01:29:51.901Z,3.7
2022-12-08T01:31:05.042Z,3.7
2022-12-08T01:32:17.995Z,3.7
2022-12-08T01:34:44.157Z,3.7
2022-12-08T01:35:56.761Z,3.7
2022-12-08T01:38:23.241Z,3.7
2022-12-08T01:39:35.781Z,3.6
2022-12-08T01:40:48.973Z,3.6
2022-12-08T01:42:01.637Z,3.6
2022-12-08T01:45:40.783Z,3.8
2022-12-08T01:46:53.903Z,3.8
2022-12-08T01:48:06.956Z,3.8
2022-12-08T01:49:19.939Z,3.8
2022-12-08T01:51:45.617Z,3.8
2022-12-08T01:52:59.041Z,3.8
2022-12-08T01:54:11.643Z,3.8
2022-12-08T01:55:25.322Z,3.8
2022-12-08T01:59:04.515Z,3.8
2022-12-08T02:00:16.665Z,3.8
2022-12-08T02:01:29.844Z,3.8
2022-12-08T02:02:42.884Z,3.8
2022-12-08T02:03:55.627Z,3.8
2022-12-08T02:05:08.960Z,3.8
2022-12-08T02:07:34.585Z,3.9
2022-12-08T02:08:47.928Z,3.9
2022-12-08T02:10:01.222Z,3.9
2022-12-08T02:12:26.929Z,3.9
2022-12-08T02:14:52.657Z,3.9
2022-12-08T02:16:05.709Z,3.9
2022-12-08T02:17:18.712Z,3.9
2022-12-08T02:18:31.682Z,3.9
2022-12-08T02:19:45.136Z,3.9
2022-12-08T02:20:58.534Z,3.9
2022-12-08T02:22:10.960Z,3.9
2022-12-08T02:23:23.963Z,3.9
2022-12-08T02:24:37.371Z,3.9
2022-12-08T02:25:49.933Z,3.9
2022-12-08T02:27:02.936Z,3.9
2022-12-08T02:28:16.119Z,3.9
2022-12-08T02:29:28.690Z,3.9
2022-12-08T02:33:07.633Z,3.9
2022-12-08T02:35:33.855Z,3.9
2022-12-08T02:36:46.707Z,3.9
2022-12-08T02:39:12.811Z,3.9
2022-12-08T02:44:05.118Z,3.9
2022-12-08T02:45:17.974Z,3.9
2022-12-08T02:46:31.154Z,3.9
2022-12-08T02:47:44.118Z,3.9
2022-12-08T02:48:57.203Z,3.9
2022-12-08T02:51:23.326Z,3.9
2022-12-08T02:52:35.966Z,3.9
2022-12-08T02:53:49.040Z,3.9
2022-12-08T02:55:01.989Z,3.9
2022-12-08T02:57:28.178Z,3.9
2022-12-08T02:59:54.193Z,3.9
2022-12-08T03:02:20.177Z,3.9
2022-12-08T03:03:32.998Z,3.9
2022-12-08T03:04:45.675Z,4
2022-12-08T03:05:58.963Z,4.1
2022-12-08T03:07:11.732Z,4.1
2022-12-08T03:09:37.709Z,4
2022-12-08T03:10:51.454Z,4
2022-12-08T03:13:16.773Z,4
2022-12-08T03:14:30.313Z,4
2022-12-08T03:16:55.967Z,4
2022-12-08T03:20:34.892Z,4
2022-12-08T03:21:47.864Z,4
2022-12-08T03:23:00.979Z,4
2022-12-08T03:24:13.986Z,4
2022-12-08T03:26:39.683Z,4
2022-12-08T03:27:52.822Z,4
2022-12-08T03:29:06.058Z,4
2022-12-08T03:31:31.879Z,4
2022-12-08T03:32:45.183Z,4
2022-12-08T03:33:57.991Z,4
2022-12-08T03:35:10.784Z,4
2022-12-08T03:36:24.306Z,4
2022-12-08T03:37:37.194Z,4
2022-12-08T03:40:03.052Z,4
2022-12-08T03:41:15.952Z,4
2022-12-08T03:44:55.246Z,4
2022-12-08T03:48:34.004Z,4
2022-12-08T03:51:00.294Z,4
2022-12-08T03:53:25.993Z,4
2022-12-08T03:54:39.064Z,4
2022-12-08T03:57:05.011Z,4
2022-12-08T03:59:30.992Z,4
2022-12-08T04:04:22.955Z,4.1
2022-12-08T04:06:49.038Z,4
2022-12-08T04:08:02.677Z,4
2022-12-08T04:09:14.854Z,4
2022-12-08T04:11:40.755Z,4
2022-12-08T04:17:45.984Z,4
2022-12-08T04:18:59.046Z,4.1
2022-12-08T04:21:24.698Z,4
2022-12-08T04:22:37.854Z,4.1
2022-12-08T04:23:52.132Z,4.1
2022-12-08T04:26:17.346Z,4.1
2022-12-08T04:28:43.029Z,4.1
2022-12-08T04:31:08.805Z,4.1
2022-12-08T04:32:22.461Z,4.1
2022-12-08T04:33:35.005Z,4.1
2022-12-08T04:34:48.018Z,4.1
2022-12-08T04:36:01.171Z,4
2022-12-08T04:37:14.525Z,3.9
2022-12-08T04:38:26.900Z,3.9
2022-12-08T04:39:39.822Z,3.9
2022-12-08T04:42:05.773Z,3.9
2022-12-08T04:43:19.299Z,3.9
2022-12-08T04:45:45.108Z,3.9
2022-12-08T04:46:57.954Z,3.9
2022-12-08T04:49:23.933Z,3.9
2022-12-08T04:54:15.770Z,3.9
2022-12-08T04:55:28.864Z,3.9
2022-12-08T04:57:54.897Z,3.9
2022-12-08T04:59:07.889Z,3.9
2022-12-08T05:00:21.010Z,3.9
2022-12-08T05:01:34.151Z,3.9
2022-12-08T05:02:47.046Z,3.8
2022-12-08T05:04:00.017Z,3.8
2022-12-08T05:05:13.465Z,3.8
2022-12-08T05:06:26.014Z,3.8
2022-12-08T05:07:38.916Z,3.8
2022-12-08T05:08:52.011Z,3.8
2022-12-08T05:10:05.058Z,3.8
2022-12-08T05:11:18.016Z,3.8
2022-12-08T05:13:44.031Z,3.8
2022-12-08T05:14:57.117Z,3.8
2022-12-08T05:16:10.109Z,3.8
2022-12-08T05:17:22.952Z,3.8
2022-12-08T05:18:36.036Z,3.8
2022-12-08T05:19:49.115Z,3.8
2022-12-08T05:21:02.192Z,3.7
2022-12-08T05:22:15.034Z,3.6
2022-12-08T05:23:28.019Z,3.6
2022-12-08T05:24:45.751Z,3.6
2022-12-08T05:25:54.080Z,3.6
2022-12-08T05:27:07.045Z,3.6
2022-12-08T05:28:40.610Z,3.6
2022-12-08T05:29:32.948Z,3.6
2022-12-08T05:30:46.192Z,3.6
2022-12-08T05:31:59.168Z,3.6
2022-12-08T05:33:12.072Z,3.6
2022-12-08T05:35:38.054Z,3.6
2022-12-08T05:36:51.404Z,3.6
2022-12-08T05:38:04.157Z,3.6
2022-12-08T05:39:17.037Z,3.8
2022-12-08T05:40:30.019Z,3.8
2022-12-08T05:42:56.035Z,3.8
2022-12-08T05:44:09.100Z,3.8
2022-12-08T05:45:22.387Z,3.8
2022-12-08T05:46:35.053Z,3.8
2022-12-08T05:47:48.341Z,3.8
2022-12-08T05:49:01.054Z,3.8
2022-12-08T05:50:14.056Z,3.8
2022-12-08T05:51:27.095Z,3.8
2022-12-08T05:53:53.364Z,3.8
2022-12-08T05:55:05.932Z,3.8
2022-12-08T05:56:19.089Z,3.8
2022-12-08T05:57:32.062Z,3.8
2022-12-08T05:58:45.039Z,3.8
2022-12-08T05:59:57.944Z,3.8
2022-12-08T06:01:11.062Z,3.8
2022-12-08T06:02:24.815Z,3.8
2022-12-08T06:03:37.150Z,3.8
2022-12-08T06:04:50.090Z,3.8
2022-12-08T06:07:16.396Z,3.8
2022-12-08T06:08:29.004Z,3.8
2022-12-08T06:09:42.068Z,3.8
2022-12-08T06:10:54.935Z,3.8
2022-12-08T06:12:08.174Z,3.8
2022-12-08T06:13:20.946Z,3.8
2022-12-08T06:15:46.777Z,3.8
2022-12-08T06:17:00.278Z,3.8
2022-12-08T06:18:13.359Z,3.8
2022-12-08T06:19:26.071Z,3.8
2022-12-08T06:20:39.072Z,3.8
2022-12-08T06:21:51.942Z,3.8
2022-12-08T06:23:05.095Z,3.8
2022-12-08T06:24:18.233Z,3.8
2022-12-08T06:25:31.065Z,3.8
2022-12-08T06:26:44.540Z,3.8
2022-12-08T06:27:57.566Z,3.8
2022-12-08T06:29:10.215Z,3.8
2022-12-08T06:30:23.217Z,3.8
2022-12-08T06:31:35.876Z,3.8
2022-12-08T06:32:49.379Z,3.8
2022-12-08T06:34:01.985Z,3.8
2022-12-08T06:35:15.310Z,3.8
2022-12-08T06:36:28.081Z,3.8
2022-12-08T06:37:41.131Z,3.7
2022-12-08T06:38:54.003Z,3.6
2022-12-08T06:40:07.297Z,3.6
2022-12-08T06:41:20.076Z,3.6
2022-12-08T06:42:33.093Z,3.6
2022-12-08T06:43:45.991Z,3.6
2022-12-08T06:44:59.636Z,3.6
2022-12-08T06:47:26.394Z,3.7
2022-12-08T06:48:38.112Z,3.7
2022-12-08T06:49:51.128Z,3.7
2022-12-08T06:51:04.075Z,3.7
2022-12-08T06:52:17.110Z,3.7
2022-12-08T06:53:30.173Z,3.7
2022-12-08T06:54:43.102Z,3.7
2022-12-08T06:56:00.005Z,3.7
2022-12-08T06:57:09.031Z,3.7
2022-12-08T06:58:22.104Z,3.6
2022-12-08T06:59:35.099Z,3.6
2022-12-08T07:00:48.044Z,3.6
2022-12-08T07:02:00.914Z,3.6
2022-12-08T07:03:14.018Z,3.6
2022-12-08T07:04:27.057Z,3.6
2022-12-08T07:05:39.897Z,3.6
2022-12-08T07:11:45.056Z,3.7
2022-12-08T07:12:58.090Z,3.7
2022-12-08T07:14:11.378Z,3.7
2022-12-08T07:15:23.796Z,3.7
2022-12-08T07:16:36.977Z,3.7
2022-12-08T07:17:52.558Z,3.7
2022-12-08T07:19:03.046Z,3.7
2022-12-08T07:20:15.896Z,3.7
2022-12-08T07:21:29.103Z,3.6
2022-12-08T07:23:57.782Z,3.6
2022-12-08T07:25:08.014Z,3.6
2022-12-08T07:26:21.051Z,3.6
2022-12-08T07:27:34.060Z,3.6
2022-12-08T07:28:47.037Z,3.6
2022-12-08T07:30:00.116Z,3.6
2022-12-08T07:31:13.176Z,3.6
2022-12-08T07:32:26.048Z,3.6
2022-12-08T07:33:39.044Z,3.6
2022-12-08T07:34:51.920Z,3.6
2022-12-08T07:36:05.060Z,3.6
2022-12-08T07:37:18.063Z,3.6
2022-12-08T07:38:31.028Z,3.6
2022-12-08T07:39:44.592Z,3.6
2022-12-08T07:40:57.064Z,3.6
2022-12-08T07:42:09.770Z,3.6
2022-12-08T07:43:23.045Z,3.6
2022-12-08T07:44:36.262Z,3.6
2022-12-08T07:45:49.089Z,3.6
2022-12-08T07:47:02.031Z,3.6
2022-12-08T07:48:15.294Z,3.6
2022-12-08T07:49:28.104Z,3.6
2022-12-08T07:50:41.088Z,3.6
2022-12-08T07:51:54.245Z,3.6
2022-12-08T07:53:07.042Z,3.6
2022-12-08T07:54:20.067Z,3.6
2022-12-08T07:55:33.000Z,3.6
2022-12-08T07:56:46.078Z,3.6
2022-12-08T07:57:58.943Z,3.6
2022-12-08T07:59:11.939Z,3.4
2022-12-08T08:01:38.193Z,3.6
2022-12-08T08:07:43.106Z,3.4
2022-12-08T08:08:56.078Z,3.4
2022-12-08T08:10:09.071Z,3.4
2022-12-08T08:11:22.275Z,3.4
2022-12-08T08:12:35.127Z,3.4
2022-12-08T08:13:48.108Z,3.4
2022-12-08T08:15:01.079Z,3.4
2022-12-08T08:16:14.305Z,3.4
2022-12-08T08:17:27.280Z,3.4
2022-12-08T08:18:39.908Z,3.4
2022-12-08T08:19:53.410Z,3.4
2022-12-08T08:21:15.929Z,3.3
2022-12-08T08:22:19.163Z,3.3
2022-12-08T08:23:32.070Z,3.3
2022-12-08T08:24:45.394Z,3.3
2022-12-08T08:27:11.135Z,3.3
2022-12-08T08:28:24.050Z,3.3
2022-12-08T08:29:37.574Z,3.3
2022-12-08T08:30:49.976Z,3.3
2022-12-08T08:32:03.185Z,3.3
2022-12-08T08:33:16.147Z,3.3
2022-12-08T08:34:29.052Z,3.3
2022-12-08T08:35:42.078Z,3.3
2022-12-08T08:36:55.109Z,3.3
2022-12-08T08:38:08.089Z,3.3
2022-12-08T08:39:21.127Z,3.3
2022-12-08T08:40:33.866Z,3.3
2022-12-08T08:41:47.312Z,3.3
2022-12-08T08:43:00.021Z,3.2
2022-12-08T08:44:13.128Z,3.2
2022-12-08T08:45:26.113Z,3.2
2022-12-08T08:46:39.106Z,3.2
2022-12-08T08:47:52.113Z,3.2
2022-12-08T08:49:05.191Z,3.2
2022-12-08T08:50:17.966Z,3.2
2022-12-08T08:51:31.123Z,3.2
2022-12-08T08:52:44.123Z,3.2
2022-12-08T08:53:57.172Z,3.2
2022-12-08T08:55:10.026Z,3.2
2022-12-08T08:56:23.038Z,3.2
2022-12-08T08:57:36.242Z,3.2
2022-12-08T08:58:49.136Z,3.2
2022-12-08T09:00:02.513Z,3.2
2022-12-08T09:01:15.181Z,3.2
2022-12-08T09:02:28.298Z,3.2
2022-12-08T09:03:41.215Z,3.2
2022-12-08T09:04:54.079Z,3.2
2022-12-08T09:06:07.089Z,3.2
2022-12-08T09:07:20.132Z,3.2
2022-12-08T09:09:46.165Z,3.2
2022-12-08T09:10:59.126Z,3.2
2022-12-08T09:12:12.149Z,3.2
2022-12-08T09:13:25.020Z,3.2
2022-12-08T09:14:38.190Z,3.2
2022-12-08T09:15:51.052Z,3.2
2022-12-08T09:18:17.124Z,3.3
2022-12-08T09:19:30.140Z,3.3
2022-12-08T09:20:43.125Z,3.3
2022-12-08T09:21:56.127Z,3.3
2022-12-08T09:23:09.104Z,3.3
2022-12-08T09:24:21.979Z,3.3
2022-12-08T09:25:35.109Z,3.3
2022-12-08T09:26:48.486Z,3.3
2022-12-08T09:28:01.078Z,3.3
2022-12-08T09:29:14.269Z,3.3
2022-12-08T09:30:27.277Z,3.3
2022-12-08T09:31:40.177Z,3.3
2022-12-08T09:32:53.173Z,3.3
2022-12-08T09:34:06.301Z,3.3
2022-12-08T09:35:19.138Z,3.3
2022-12-08T09:36:32.202Z,3.3
2022-12-08T09:37:45.031Z,3.3
2022-12-08T09:38:58.229Z,3.3
2022-12-08T09:40:11.485Z,3.3
2022-12-08T09:41:24.131Z,3.4
2022-12-08T09:42:37.143Z,3.4
2022-12-08T09:43:50.121Z,3.4
2022-12-08T09:45:03.215Z,3.5
2022-12-08T09:46:16.494Z,3.4
2022-12-08T09:47:35.964Z,3.4
2022-12-08T09:48:42.154Z,3.4
2022-12-08T09:49:55.681Z,3.4
2022-12-08T09:51:08.355Z,3.4
2022-12-08T09:52:21.118Z,3.4
2022-12-08T09:53:35.735Z,3.4
2022-12-08T09:54:47.517Z,3.4
2022-12-08T09:56:00.169Z,3.4
2022-12-08T09:57:13.140Z,3.4
2022-12-08T09:58:26.149Z,3.4
2022-12-08T09:59:39.003Z,3.4
2022-12-08T10:00:52.295Z,3.4
2022-12-08T10:02:05.220Z,3.4
2022-12-08T10:03:18.147Z,3.4
2022-12-08T10:04:31.074Z,3.4
2022-12-08T10:05:44.002Z,3.4
2022-12-08T10:06:57.223Z,3.4
2022-12-08T10:08:10.146Z,3.4
2022-12-08T10:09:23.215Z,3.4
2022-12-08T10:10:36.229Z,3.6
2022-12-08T10:11:49.731Z,3.6
2022-12-08T10:13:02.160Z,3.6
2022-12-08T10:14:15.339Z,3.6
2022-12-08T10:15:28.334Z,3.6
2022-12-08T10:16:41.570Z,3.6
2022-12-08T10:19:07.151Z,3.6
2022-12-08T10:20:20.305Z,3.6
2022-12-08T10:21:33.164Z,3.6
2022-12-08T10:22:46.146Z,3.6
2022-12-08T10:23:59.150Z,3.6
2022-12-08T10:25:12.171Z,3.6
2022-12-08T10:26:25.181Z,3.6
2022-12-08T10:28:51.130Z,3.6
2022-12-08T10:30:04.264Z,3.6
2022-12-08T10:31:17.239Z,3.6
2022-12-08T10:32:30.203Z,3.6
2022-12-08T10:33:43.407Z,3.6
2022-12-08T10:34:56.482Z,3.6
2022-12-08T10:36:09.196Z,3.6
2022-12-08T10:37:22.092Z,3.6
2022-12-08T10:38:35.145Z,3.6
2022-12-08T10:39:48.079Z,3.7
2022-12-08T10:41:00.905Z,3.7
2022-12-08T10:42:14.181Z,3.7
2022-12-08T10:43:27.184Z,3.7
2022-12-08T10:44:40.069Z,3.7
2022-12-08T10:45:53.191Z,3.7
2022-12-08T10:47:06.341Z,3.7
2022-12-08T10:48:19.178Z,3.7
2022-12-08T10:49:32.121Z,3.7
2022-12-08T10:51:58.185Z,3.7
2022-12-08T10:53:11.189Z,3.7
2022-12-08T10:54:24.204Z,3.7
2022-12-08T10:55:37.482Z,3.7
2022-12-08T10:56:50.788Z,3.7
2022-12-08T10:58:03.216Z,3.7
2022-12-08T10:59:16.088Z,3.7
2022-12-08T11:00:29.347Z,3.7
2022-12-08T11:01:42.342Z,3.7
2022-12-08T11:04:08.222Z,3.7
2022-12-08T11:05:21.180Z,3.7
2022-12-08T11:06:34.184Z,3.6
2022-12-08T11:07:47.606Z,3.8
2022-12-08T11:09:00.192Z,3.8
2022-12-08T11:10:13.049Z,3.8
2022-12-08T11:11:29.442Z,3.8
2022-12-08T11:12:39.347Z,3.8
2022-12-08T11:13:52.290Z,3.8
2022-12-08T11:15:04.911Z,3.8
2022-12-08T11:16:18.699Z,3.8
2022-12-08T11:17:31.514Z,3.8
2022-12-08T11:18:44.073Z,3.8
2022-12-08T11:19:57.102Z,3.9
2022-12-08T11:21:10.242Z,3.9
2022-12-08T11:22:23.106Z,3.9
2022-12-08T11:23:36.208Z,3.9
2022-12-08T11:24:49.374Z,3.9
2022-12-08T11:26:02.197Z,3.9
2022-12-08T11:27:15.214Z,4.1
2022-12-08T11:28:28.249Z,4.1
2022-12-08T11:29:41.225Z,4.1
2022-12-08T11:30:54.511Z,4.1
2022-12-08T11:32:07.288Z,4
2022-12-08T11:33:20.115Z,4
2022-12-08T11:34:33.108Z,4.1
2022-12-08T11:35:46.301Z,4.1
2022-12-08T11:36:59.223Z,4.1
2022-12-08T11:38:20.386Z,4.1
2022-12-08T11:39:25.235Z,4.1
2022-12-08T11:40:38.286Z,4.1
2022-12-08T11:41:51.233Z,4.1
2022-12-08T11:47:56.274Z,4.3
2022-12-08T11:51:35.118Z,4.4
2022-12-08T11:52:48.124Z,4.4
2022-12-08T11:54:01.114Z,4.4
2022-12-08T11:55:14.452Z,4.4
2022-12-08T11:56:27.163Z,4.4
2022-12-08T11:57:40.442Z,4.4
2022-12-08T11:58:53.899Z,4.3
2022-12-08T12:00:06.408Z,4.3
2022-12-08T12:01:19.252Z,4.3
2022-12-08T12:02:32.407Z,4.3
2022-12-08T12:03:45.313Z,4.4
2022-12-08T12:04:58.251Z,4.4
2022-12-08T12:06:30.714Z,4.4
2022-12-08T12:07:26.326Z,4.4
2022-12-08T12:08:37.319Z,4.4
2022-12-08T12:09:50.256Z,4.4
2022-12-08T12:11:03.269Z,4.4
2022-12-08T12:12:16.986Z,4.4
2022-12-08T12:14:42.336Z,4.3
2022-12-08T12:15:55.161Z,4.3
2022-12-08T12:17:09.001Z,4.3
2022-12-08T12:18:21.256Z,4.3
2022-12-08T12:19:34.269Z,4.3
2022-12-08T12:20:47.119Z,4.3
2022-12-08T12:22:00.282Z,4.3
2022-12-08T12:23:13.198Z,4.3
2022-12-08T12:24:28.370Z,4.3
2022-12-08T12:25:39.258Z,4.3
2022-12-08T12:26:52.305Z,4.3
2022-12-08T12:28:05.246Z,4.3
2022-12-08T12:29:18.256Z,4.3
2022-12-08T12:30:31.718Z,4.3
2022-12-08T12:31:44.757Z,4.3
2022-12-08T12:32:57.305Z,4.3
2022-12-08T12:34:10.312Z,4.3
2022-12-08T12:35:27.082Z,4.3
2022-12-08T12:36:36.466Z,4.3
2022-12-08T12:37:49.315Z,4.3
2022-12-08T12:39:02.139Z,4.3
2022-12-08T12:40:15.268Z,4.3
2022-12-08T12:41:28.188Z,4.3
2022-12-08T12:42:41.200Z,4.3
2022-12-08T12:43:54.268Z,4.3
2022-12-08T12:45:07.288Z,4.3
2022-12-08T12:46:20.089Z,4.3
2022-12-08T12:47:33.279Z,4.3
2022-12-08T12:48:46.389Z,4.3
2022-12-08T12:49:59.143Z,4.3
2022-12-08T12:51:12.283Z,4.3
2022-12-08T12:52:25.162Z,4.3
2022-12-08T12:53:38.270Z,4.3
2022-12-08T12:54:51.304Z,4.3
2022-12-08T12:56:04.444Z,4.3
2022-12-08T12:57:17.280Z,4.3
2022-12-08T12:59:43.271Z,4.3
2022-12-08T13:00:56.827Z,4.5
2022-12-08T13:02:09.181Z,4.5
2022-12-08T13:03:22.305Z,4.5
2022-12-08T13:04:35.307Z,4.5
2022-12-08T13:05:48.247Z,4.5
2022-12-08T13:07:01.628Z,4.5
2022-12-08T13:08:14.322Z,4.5
2022-12-08T13:09:27.314Z,4.5
2022-12-08T13:10:40.000Z,4.5
2022-12-08T13:11:53.292Z,4.5
2022-12-08T13:13:06.151Z,4.5
2022-12-08T13:14:19.389Z,4.5
2022-12-08T13:15:32.358Z,4.5
2022-12-08T13:16:45.307Z,4.6
2022-12-08T13:17:58.329Z,4.6
2022-12-08T13:19:11.066Z,4.6
2022-12-08T13:20:24.355Z,4.6
2022-12-08T13:21:37.296Z,4.6
2022-12-08T13:22:50.511Z,4.6
2022-12-08T13:24:03.303Z,4.6
2022-12-08T13:25:16.341Z,4.6
2022-12-08T13:26:29.314Z,4.6
2022-12-08T13:27:42.304Z,4.6
2022-12-08T13:28:55.339Z,4.6
2022-12-08T13:30:08.852Z,4.6
2022-12-08T13:31:21.206Z,4.6
2022-12-08T13:32:48.938Z,4.6
2022-12-08T13:33:47.314Z,4.6
2022-12-08T13:35:00.590Z,4.6
2022-12-08T13:36:13.171Z,4.6
2022-12-08T13:37:26.166Z,4.6
2022-12-08T13:38:39.197Z,4.6
2022-12-08T13:39:52.287Z,4.6
2022-12-08T13:42:18.283Z,4.6
2022-12-08T13:43:38.935Z,4.6
2022-12-08T13:46:57.790Z,4.6
2022-12-08T13:47:32.634Z,4.6
2022-12-08T13:48:35.538Z,4.6
2022-12-08T13:52:37.277Z,4.6
2022-12-08T13:55:20.001Z,4.6
2022-12-08T13:57:10.399Z,4.6
2022-12-08T13:58:07.266Z,4.6
2022-12-08T13:59:20.351Z,4.6
2022-12-08T14:00:33.334Z,4.6
2022-12-08T14:01:46.337Z,4.6
2022-12-08T14:02:59.373Z,4.6
2022-12-08T14:04:37.431Z,4.5
2022-12-08T14:05:41.002Z,4.5
2022-12-08T14:06:38.405Z,4.5
2022-12-08T14:07:51.943Z,4.5
2022-12-08T14:09:10.161Z,4.5
2022-12-08T14:10:17.329Z,4.5
2022-12-08T14:11:30.178Z,4.5
2022-12-08T14:12:43.780Z,4.5
2022-12-08T14:13:56.307Z,4.5
2022-12-08T14:15:09.525Z,4.5
2022-12-08T14:16:22.424Z,4.5
2022-12-08T14:17:35.338Z,4.5
2022-12-08T14:18:48.311Z,4.5
2022-12-08T14:20:01.237Z,4.5
2022-12-08T14:21:21.315Z,4.5
2022-12-08T14:22:27.201Z,4.5
2022-12-08T14:23:40.893Z,4.5
2022-12-08T14:24:53.318Z,4.5
2022-12-08T14:26:06.392Z,4.5
2022-12-08T14:27:19.867Z,4.5
2022-12-08T14:28:32.354Z,4.5
2022-12-08T14:29:45.477Z,4.5
2022-12-08T14:30:58.938Z,4.5
2022-12-08T14:32:11.068Z,4.4
2022-12-08T14:33:24.230Z,4.3
2022-12-08T14:34:37.544Z,4.3
2022-12-08T14:35:50.356Z,4.3
2022-12-08T14:37:03.218Z,4.3
2022-12-08T14:38:16.317Z,4.3
2022-12-08T14:39:29.385Z,4.3
2022-12-08T14:40:43.050Z,4.3
2022-12-08T14:41:55.722Z,4.3
2022-12-08T14:43:08.265Z,4.3
2022-12-08T14:44:21.208Z,4.3
2022-12-08T14:45:35.014Z,4.3
2022-12-08T14:46:47.430Z,4.3
2022-12-08T14:48:00.187Z,4.3
2022-12-08T14:49:13.488Z,4.4
2022-12-08T14:50:26.223Z,4.4
2022-12-08T14:51:39.385Z,4.3
2022-12-08T14:52:52.347Z,4.3
2022-12-08T14:55:18.370Z,4.3
2022-12-08T14:56:31.803Z,4.3
2022-12-08T14:57:44.652Z,4.3
2022-12-08T14:58:57.722Z,4.3
2022-12-08T15:00:10.317Z,4.3
2022-12-08T15:01:23.075Z,4.3
2022-12-08T15:02:36.291Z,4.3
2022-12-08T15:03:51.112Z,4.2
2022-12-08T15:06:15.644Z,4.1
2022-12-08T15:07:28.420Z,4.1
2022-12-08T15:08:41.936Z,4.1
2022-12-08T15:09:54.362Z,4.1
2022-12-08T15:11:07.313Z,4.1
2022-12-08T15:12:24.785Z,4.1
2022-12-08T15:13:33.373Z,4.1
2022-12-08T15:14:46.217Z,4.1
2022-12-08T15:15:59.727Z,4.1
2022-12-08T15:17:12.164Z,4.1
2022-12-08T15:18:25.358Z,4.1
2022-12-08T15:19:38.334Z,4.1
2022-12-08T15:20:51.543Z,4.1
2022-12-08T15:22:04.360Z,4.1
2022-12-08T15:24:30.377Z,4.1
2022-12-08T15:25:43.289Z,4.1
2022-12-08T15:26:56.210Z,4.1
2022-12-08T15:28:09.370Z,4
2022-12-08T15:29:22.324Z,4
2022-12-08T15:30:35.545Z,4
2022-12-08T15:31:48.794Z,4
2022-12-08T15:33:01.339Z,4
2022-12-08T15:34:14.382Z,4
2022-12-08T15:35:27.051Z,4
2022-12-08T15:36:40.562Z,4
2022-12-08T15:37:53.302Z,4
2022-12-08T15:39:06.359Z,4
2022-12-08T15:40:19.138Z,4
2022-12-08T15:41:32.651Z,4.1
2022-12-08T15:42:45.365Z,4
2022-12-08T15:45:11.397Z,4
2022-12-08T15:46:24.360Z,4
2022-12-08T15:47:37.476Z,4
2022-12-08T15:48:53.642Z,4
2022-12-08T15:50:03.734Z,4
2022-12-08T15:51:16.304Z,4.1
2022-12-08T15:52:29.854Z,4
2022-12-08T15:53:42.334Z,4
2022-12-08T15:54:55.347Z,4
2022-12-08T15:56:28.583Z,4
2022-12-08T15:57:35.849Z,4
2022-12-08T15:58:53.385Z,4
2022-12-08T15:59:47.746Z,4
2022-12-08T16:01:01.158Z,4
2022-12-08T16:02:16.683Z,4
2022-12-08T16:03:59.706Z,4
2022-12-08T16:06:20.373Z,4.1
2022-12-08T16:07:20.604Z,4.1
2022-12-08T16:08:38.138Z,4.1
2022-12-08T16:09:31.836Z,4.1
2022-12-08T16:11:24.035Z,4.1
2022-12-08T16:12:06.280Z,4.1
2022-12-08T16:15:23.294Z,4.1
2022-12-08T16:15:51.536Z,4.1
2022-12-08T16:16:49.368Z,4
2022-12-08T16:18:02.536Z,4
2022-12-08T16:19:15.573Z,4
2022-12-08T16:20:44.252Z,4
2022-12-08T16:22:17.474Z,4
2022-12-08T16:23:03.505Z,4.1
2022-12-08T16:24:09.353Z,4
2022-12-08T16:25:21.278Z,4
2022-12-08T16:28:01.722Z,4.1
2022-12-08T16:28:59.398Z,4
2022-12-08T16:30:12.244Z,4.1
2022-12-08T16:32:38.256Z,4.1
2022-12-08T16:33:51.371Z,4.1
2022-12-08T16:35:04.682Z,4.1
2022-12-08T16:36:17.362Z,4.1
2022-12-08T16:37:30.217Z,4.1
2022-12-08T16:38:43.352Z,4.1
2022-12-08T16:39:56.457Z,4.1
2022-12-08T16:41:09.294Z,4.1
2022-12-08T16:42:22.377Z,4.1
2022-12-08T16:43:35.426Z,4.1
2022-12-08T16:44:48.362Z,4.1
2022-12-08T16:46:01.397Z,4.1
2022-12-08T16:47:14.427Z,4.1
2022-12-08T16:48:27.579Z,4.1
2022-12-08T16:49:40.290Z,4.1
2022-12-08T16:50:53.475Z,4.1
2022-12-08T16:52:06.396Z,4.1
2022-12-08T16:53:19.415Z,4.1
2022-12-08T16:54:32.733Z,4.1
2022-12-08T16:55:45.243Z,4.1
2022-12-08T16:56:58.384Z,4.1
2022-12-08T16:58:11.849Z,4.1
2022-12-08T16:59:24.397Z,4.1
2022-12-08T17:00:37.546Z,4.1
2022-12-08T17:01:50.380Z,4.1
2022-12-08T17:03:03.402Z,4.1
2022-12-08T17:04:31.279Z,4.1
2022-12-08T17:05:29.417Z,4.1
2022-12-08T17:06:42.435Z,4.1
2022-12-08T17:07:55.454Z,3.9
2022-12-08T17:09:08.621Z,3.9
2022-12-08T17:10:21.740Z,3.9
2022-12-08T17:11:39.291Z,3.9
2022-12-08T17:12:47.260Z,3.9
2022-12-08T17:14:00.268Z,3.9
2022-12-08T17:15:13.347Z,3.9
2022-12-08T17:16:26.440Z,3.9
2022-12-08T17:17:39.415Z,3.9
2022-12-08T17:18:52.383Z,3.9
2022-12-08T17:20:05.746Z,3.9
2022-12-08T17:21:18.462Z,3.9
2022-12-08T17:22:31.414Z,3.9
2022-12-08T17:23:44.259Z,3.9
2022-12-08T17:24:57.277Z,3.9
2022-12-08T17:26:10.424Z,3.9
2022-12-08T17:27:23.666Z,3.9
2022-12-08T17:28:59.269Z,3.9
2022-12-08T17:29:49.400Z,3.9
2022-12-08T17:31:02.430Z,3.9
2022-12-08T17:32:15.366Z,3.9
2022-12-08T17:33:28.091Z,3.9
2022-12-08T17:34:41.387Z,3.9
2022-12-08T17:35:54.416Z,3.9
2022-12-08T17:37:07.398Z,3.9
2022-12-08T17:38:20.422Z,3.9
2022-12-08T17:39:33.492Z,3.9
2022-12-08T17:40:46.365Z,3.9
2022-12-08T17:41:59.537Z,3.9
2022-12-08T17:43:12.284Z,3.9
2022-12-08T17:44:25.286Z,3.9
2022-12-08T17:46:53.155Z,3.9
2022-12-08T17:48:04.518Z,3.9
2022-12-08T17:49:17.282Z,3.9
2022-12-08T17:50:30.299Z,3.9
2022-12-08T17:51:43.267Z,3.9
2022-12-08T17:52:56.743Z,3.9
2022-12-08T17:54:09.440Z,3.9
2022-12-08T17:55:22.440Z,3.9
2022-12-08T17:56:35.414Z,3.9
2022-12-08T17:57:49.012Z,3.9
2022-12-08T17:59:01.443Z,3.9
2022-12-08T18:00:14.783Z,3.9
2022-12-08T18:01:27.475Z,3.9
2022-12-08T18:02:40.453Z,3.9
2022-12-08T18:03:53.430Z,3.9
2022-12-08T18:05:06.448Z,3.9
2022-12-08T18:06:19.198Z,3.9
2022-12-08T18:07:32.435Z,3.9
2022-12-08T18:08:45.758Z,3.9
2022-12-08T18:09:58.580Z,3.9
2022-12-08T18:11:11.131Z,3.9
2022-12-08T18:12:24.395Z,3.9
2022-12-08T18:13:37.445Z,3.9
2022-12-08T18:14:50.171Z,3.9
2022-12-08T18:16:03.362Z,3.9
2022-12-08T18:17:16.387Z,3.9
2022-12-08T18:18:29.446Z,3.9
2022-12-08T18:19:42.423Z,3.9
2022-12-08T18:20:55.240Z,3.9
2022-12-08T18:22:08.423Z,3.9
2022-12-08T18:23:21.416Z,3.9
2022-12-08T18:24:34.473Z,3.9
2022-12-08T18:27:00.522Z,3.9
2022-12-08T18:28:13.474Z,3.9
2022-12-08T18:29:26.447Z,3.9
2022-12-08T18:30:39.865Z,3.9
2022-12-08T18:33:05.446Z,3.9
2022-12-08T18:34:18.745Z,3.9
2022-12-08T18:36:44.181Z,3.9
2022-12-08T18:37:57.317Z,3.9
2022-12-08T18:39:10.881Z,3.8
2022-12-08T18:40:23.418Z,3.8
2022-12-08T18:42:49.182Z,3.8
2022-12-08T18:44:02.282Z,3.8
2022-12-08T18:45:19.310Z,3.8
2022-12-08T18:46:28.514Z,3.8
2022-12-08T18:47:41.168Z,3.8
2022-12-08T18:48:54.249Z,3.8
2022-12-08T18:50:07.705Z,3.8
2022-12-08T18:51:20.640Z,3.8
2022-12-08T18:52:33.580Z,3.8
2022-12-08T18:53:46.427Z,3.8
2022-12-08T18:55:06.147Z,3.8
2022-12-08T18:56:12.787Z,3.8
2022-12-08T18:57:25.436Z,3.8
2022-12-08T18:58:38.321Z,3.8
2022-12-08T18:59:51.453Z,3.8
2022-12-08T19:01:04.444Z,3.8
2022-12-08T19:02:17.403Z,3.8
2022-12-08T19:03:30.347Z,3.8
2022-12-08T19:04:44.146Z,3.8
2022-12-08T19:05:56.177Z,3.8
2022-12-08T19:07:10.146Z,3.8
2022-12-08T19:08:25.506Z,3.8
2022-12-08T19:09:35.453Z,3.8
2022-12-08T19:10:48.458Z,3.8
2022-12-08T19:12:01.879Z,3.8
2022-12-08T19:13:14.260Z,3.8
2022-12-08T19:14:28.376Z,3.7
2022-12-08T19:15:40.503Z,3.7
2022-12-08T19:16:53.431Z,3.7
2022-12-08T19:18:06.215Z,3.7
2022-12-08T19:19:19.453Z,3.7
2022-12-08T19:20:32.235Z,3.7
2022-12-08T19:21:46.607Z,3.7
2022-12-08T19:22:58.512Z,3.7
2022-12-08T19:24:11.520Z,3.7
2022-12-08T19:25:24.981Z,3.7
2022-12-08T19:26:37.431Z,3.7
2022-12-08T19:27:50.472Z,3.6
2022-12-08T19:31:29.615Z,3.6